DXXX/LFW METAR and TAF weather

Enter ICAO airport designator
Station Type Date Time Source
DXXX METAR 2018/01/16 09:00 UTC NOAA

DXXX 160900Z 25005KT 8000 SCT013 28/25 Q1013 NOSIG


Station Type Date Time Source
DXXX Decoded METAR 2018/01/16 09:00 UTC NOAA

Lome, Togo (DXXX) 06-10N 001-15E 25M
Jan 16, 2018 - 04:00 AM EST / 2018.01.16 0900 UTC
Wind: from the WSW (250 degrees) at 6 MPH (5 KT):0
Visibility: 4 mile(s):0
Sky conditions: partly cloudy
Temperature: 82 F (28 C)
Dew Point: 77 F (25 C)
Relative Humidity: 83%
Pressure (altimeter): 29.91 in. Hg (1013 hPa)
ob: DXXX 160900Z 25005KT 8000 SCT013 28/25 Q1013 NOSIG
cycle: 9

Station Type Date Time Source
DXXX TAF 2018/01/16 06:00 UTC NOAA

TAF DXXX 160530Z 1606/1712 VRB04KT 3500 FEW012
TEMPO 1606/1608 2000 BR
BECMG 1608/1610 20010KT 7000 NSW
BECMG 1622/1624 26004KT
BECMG 1703/1705 2500 BR
BECMG 1708/1710 7000 NSW


Example: see airport list